Time;durP1;ratioP1;P1;durP2;ratioP2;P2;SDS_P1;SDS_P2;PMS_P1;PMS_P2;Temp;Humidity;BMP_temperature;BMP_pressure;BME280_temperature;BME280_humidity;BME280_pressure;Samples;Min_cycle;Max_cycle;Signal;HPM_P1;HPM_P2
2021/01/30 00:01:28;;;;;;;18.47;12.17;;;;;;;;;;5031873;28;20175;-76
2021/01/30 00:03:53;;;;;;;18.93;12.47;;;;;;;;;;5031913;28;20206;-76
2021/01/30 00:06:19;;;;;;;19.93;12.77;;;;;;;;;;5031935;28;20258;-76
2021/01/30 00:08:45;;;;;;;20.83;12.57;;;;;;;;;;5031941;28;20183;-76
2021/01/30 00:11:12;;;;;;;22.77;12.87;;;;;;;;;;5013929;28;20233;-75
2021/01/30 00:13:38;;;;;;;18.17;12.67;;;;;;;;;;5032010;28;20200;-76
2021/01/30 00:16:05;;;;;;;17.67;12.93;;;;;;;;;;5030775;28;20175;-76
2021/01/30 00:18:31;;;;;;;19.20;14.80;;;;;;;;;;5031883;28;20634;-77
2021/01/30 00:20:57;;;;;;;20.07;14.57;;;;;;;;;;5030380;28;20269;-75
2021/01/30 00:23:23;;;;;;;21.87;15.10;;;;;;;;;;5030615;28;20218;-75
2021/01/30 00:25:49;;;;;;;19.00;12.53;;;;;;;;;;5030656;28;20190;-75
2021/01/30 00:28:15;;;;;;;21.07;13.97;;;;;;;;;;5014060;28;20187;-76
2021/01/30 00:30:41;;;;;;;22.90;14.93;;;;;;;;;;5013992;28;20220;-75
2021/01/30 00:33:07;;;;;;;20.00;14.37;;;;;;;;;;5030310;28;20206;-76
2021/01/30 00:35:34;;;;;;;22.37;15.33;;;;;;;;;;5014038;28;20179;-75
2021/01/30 00:37:59;;;;;;;20.30;12.90;;;;;;;;;;5014266;28;20190;-76
2021/01/30 00:40:26;;;;;;;24.70;15.33;;;;;;;;;;5031208;28;20183;-76
2021/01/30 00:42:52;;;;;;;23.60;16.07;;;;;;;;;;5031529;28;20194;-77
2021/01/30 00:45:19;;;;;;;26.93;17.43;;;;;;;;;;5030383;28;20198;-75
2021/01/30 00:47:44;;;;;;;22.83;16.40;;;;;;;;;;5013722;28;20623;-76
2021/01/30 00:50:11;;;;;;;23.30;15.40;;;;;;;;;;5029940;28;20191;-76
2021/01/30 00:52:37;;;;;;;22.43;15.80;;;;;;;;;;5013727;28;20639;-77
2021/01/30 00:55:04;;;;;;;24.77;17.03;;;;;;;;;;5030357;28;20201;-76
2021/01/30 00:57:30;;;;;;;20.67;14.07;;;;;;;;;;5030277;28;20229;-76
2021/01/30 00:59:56;;;;;;;22.60;15.67;;;;;;;;;;5032429;28;20183;-76
2021/01/30 01:02:22;;;;;;;21.03;15.17;;;;;;;;;;5034327;28;20598;-76
2021/01/30 01:04:48;;;;;;;17.93;12.03;;;;;;;;;;5017460;28;20693;-75
2021/01/30 01:07:14;;;;;;;23.27;15.93;;;;;;;;;;5034144;28;20185;-76
2021/01/30 01:09:43;;;;;;;20.50;14.90;;;;;;;;;;5034793;28;20186;-76
2021/01/30 01:12:09;;;;;;;23.93;15.80;;;;;;;;;;5033836;28;20214;-76
2021/01/30 01:14:35;;;;;;;22.27;16.80;;;;;;;;;;5033817;28;20206;-76
2021/01/30 01:17:01;;;;;;;18.33;13.43;;;;;;;;;;5035072;28;20194;-76
2021/01/30 01:19:27;;;;;;;22.07;15.40;;;;;;;;;;5033489;28;20171;-75
2021/01/30 01:21:53;;;;;;;22.03;14.93;;;;;;;;;;5033729;28;20641;-77
2021/01/30 01:24:19;;;;;;;27.03;18.40;;;;;;;;;;5033541;28;20623;-76
2021/01/30 01:26:45;;;;;;;25.33;18.80;;;;;;;;;;5033704;28;20661;-77
2021/01/30 01:29:13;;;;;;;26.93;19.57;;;;;;;;;;5017055;28;20214;-75
2021/01/30 01:31:38;;;;;;;24.27;19.73;;;;;;;;;;5016787;28;20213;-76
2021/01/30 01:34:04;;;;;;;25.50;20.50;;;;;;;;;;5016964;28;20193;-75
2021/01/30 01:36:30;;;;;;;27.97;21.03;;;;;;;;;;5016924;28;20182;-75
2021/01/30 01:38:56;;;;;;;27.27;18.87;;;;;;;;;;5033394;28;20185;-77
2021/01/30 01:41:22;;;;;;;25.50;19.33;;;;;;;;;;5033163;28;20177;-76
2021/01/30 01:43:50;;;;;;;26.77;19.80;;;;;;;;;;5034526;28;20206;-75
2021/01/30 01:46:21;;;;;;;28.37;19.33;;;;;;;;;;5033235;28;20179;-76
2021/01/30 01:48:50;;;;;;;25.60;18.80;;;;;;;;;;5033328;28;20178;-76
2021/01/30 01:51:17;;;;;;;18.57;13.70;;;;;;;;;;5034092;28;20182;-76
2021/01/30 01:53:43;;;;;;;20.30;13.63;;;;;;;;;;5033232;28;20406;-75
2021/01/30 01:56:11;;;;;;;20.70;15.60;;;;;;;;;;5033080;28;20221;-77
2021/01/30 01:58:39;;;;;;;23.20;16.87;;;;;;;;;;5033177;28;20182;-76
2021/01/30 02:01:04;;;;;;;22.53;16.53;;;;;;;;;;5016073;28;20269;-76
2021/01/30 02:03:31;;;;;;;22.17;15.43;;;;;;;;;;5034039;28;20288;-75
2021/01/30 02:05:58;;;;;;;19.70;15.97;;;;;;;;;;5033012;28;20183;-76
2021/01/30 02:08:24;;;;;;;20.43;14.87;;;;;;;;;;5032859;28;20642;-75
2021/01/30 02:10:50;;;;;;;20.63;14.67;;;;;;;;;;5032215;28;20185;-75
2021/01/30 02:13:21;;;;;;;23.50;17.13;;;;;;;;;;5033312;28;20289;-76
2021/01/30 02:15:47;;;;;;;23.83;16.77;;;;;;;;;;5016249;28;20179;-76
2021/01/30 02:18:22;;;;;;;21.93;16.53;;;;;;;;;;5032726;28;20198;-77
2021/01/30 02:21:01;;;;;;;23.20;17.60;;;;;;;;;;5032333;28;20188;-75
2021/01/30 02:23:37;;;;;;;21.80;15.03;;;;;;;;;;5032331;28;20210;-75
2021/01/30 02:26:18;;;;;;;20.57;15.67;;;;;;;;;;5032405;28;20194;-76
2021/01/30 02:28:44;;;;;;;18.47;13.73;;;;;;;;;;5033662;28;20187;-75
2021/01/30 02:31:23;;;;;;;21.07;14.67;;;;;;;;;;5033409;28;20321;-76
2021/01/30 02:33:49;;;;;;;21.13;15.30;;;;;;;;;;5016268;28;20201;-76
2021/01/30 02:36:15;;;;;;;22.50;16.53;;;;;;;;;;5033511;28;20193;-76
2021/01/30 02:38:42;;;;;;;23.80;16.83;;;;;;;;;;5033364;28;20179;-76
2021/01/30 02:41:13;;;;;;;25.10;16.67;;;;;;;;;;5030472;28;20195;-76
2021/01/30 02:43:40;;;;;;;24.03;17.63;;;;;;;;;;5032699;28;20221;-76
2021/01/30 02:46:06;;;;;;;22.63;15.87;;;;;;;;;;5032415;28;20201;-76
2021/01/30 02:48:36;;;;;;;20.77;15.40;;;;;;;;;;5015813;28;20549;-75
2021/01/30 02:51:03;;;;;;;18.90;14.70;;;;;;;;;;5015348;28;20647;-75
2021/01/30 02:53:33;;;;;;;18.40;14.27;;;;;;;;;;5031793;28;20241;-76
2021/01/30 02:56:00;;;;;;;19.40;14.17;;;;;;;;;;5016013;28;20182;-79
2021/01/30 02:58:36;;;;;;;18.37;13.50;;;;;;;;;;5016147;28;20182;-76
2021/01/30 03:01:03;;;;;;;15.33;11.97;;;;;;;;;;5015456;28;20178;-77
2021/01/30 03:03:28;;;;;;;10.00;8.20;;;;;;;;;;5015546;28;20207;-77
2021/01/30 03:05:55;;;;;;;14.43;10.70;;;;;;;;;;5048335;28;20594;-77
2021/01/30 03:08:27;;;;;;;9.67;8.10;;;;;;;;;;5015553;28;20186;-76
2021/01/30 03:11:14;;;;;;;10.10;8.27;;;;;;;;;;5033069;28;20646;-77
2021/01/30 03:13:47;;;;;;;9.33;7.90;;;;;;;;;;5031825;28;20217;-78
2021/01/30 03:16:13;;;;;;;11.00;8.70;;;;;;;;;;5031678;28;20206;-77
2021/01/30 03:18:40;;;;;;;10.73;9.17;;;;;;;;;;5048320;28;20178;-78
2021/01/30 03:21:06;;;;;;;12.47;10.03;;;;;;;;;;5048005;28;20193;-77
2021/01/30 03:23:33;;;;;;;11.07;9.07;;;;;;;;;;5032674;28;20633;-76
2021/01/30 03:26:00;;;;;;;12.63;9.30;;;;;;;;;;5031394;28;20284;-77
2021/01/30 03:28:26;;;;;;;9.20;8.10;;;;;;;;;;5031892;28;20230;-76
2021/01/30 03:30:52;;;;;;;12.63;9.00;;;;;;;;;;5031623;28;20642;-77
2021/01/30 03:33:18;;;;;;;11.60;9.33;;;;;;;;;;5048080;28;20561;-77
2021/01/30 03:35:44;;;;;;;9.73;7.77;;;;;;;;;;5031561;28;20194;-77
2021/01/30 03:38:10;;;;;;;9.93;8.10;;;;;;;;;;5031316;28;20274;-76
2021/01/30 03:40:38;;;;;;;9.10;8.20;;;;;;;;;;5047851;28;20175;-78
2021/01/30 03:43:05;;;;;;;9.60;8.20;;;;;;;;;;5032478;28;20179;-77
2021/01/30 03:45:31;;;;;;;10.20;8.23;;;;;;;;;;5047923;28;20179;-77
2021/01/30 03:47:57;;;;;;;8.93;7.70;;;;;;;;;;5047714;28;20265;-76
2021/01/30 03:50:23;;;;;;;8.77;7.37;;;;;;;;;;5032526;28;20209;-76
2021/01/30 03:52:49;;;;;;;8.30;6.53;;;;;;;;;;5032378;28;20237;-76
2021/01/30 03:55:15;;;;;;;7.73;6.93;;;;;;;;;;5047839;28;20639;-77
2021/01/30 03:57:41;;;;;;;8.17;7.10;;;;;;;;;;5031113;28;20179;-78
2021/01/30 04:00:08;;;;;;;8.73;7.83;;;;;;;;;;5047285;28;20171;-76
2021/01/30 04:02:33;;;;;;;9.10;8.00;;;;;;;;;;5030741;28;20190;-76
2021/01/30 04:04:59;;;;;;;8.27;7.40;;;;;;;;;;5030918;28;20201;-77
2021/01/30 04:07:25;;;;;;;9.77;8.43;;;;;;;;;;5032170;28;20193;-77
2021/01/30 04:09:51;;;;;;;8.50;7.57;;;;;;;;;;5030680;28;20207;-77
2021/01/30 04:12:17;;;;;;;9.03;7.97;;;;;;;;;;5047407;28;20205;-76
2021/01/30 04:14:43;;;;;;;9.57;8.13;;;;;;;;;;5047333;28;20245;-77
2021/01/30 04:17:09;;;;;;;11.03;8.70;;;;;;;;;;5047495;28;20159;-76
2021/01/30 04:19:36;;;;;;;10.43;8.93;;;;;;;;;;5047183;28;20189;-76
2021/01/30 04:22:03;;;;;;;11.63;9.27;;;;;;;;;;5030796;28;20228;-77
2021/01/30 04:24:29;;;;;;;11.80;9.40;;;;;;;;;;5047000;28;20214;-79
2021/01/30 04:26:54;;;;;;;14.10;10.27;;;;;;;;;;5030780;28;20183;-76
2021/01/30 04:29:20;;;;;;;11.67;9.77;;;;;;;;;;5030670;28;20179;-77
2021/01/30 04:31:46;;;;;;;13.30;9.90;;;;;;;;;;5047219;28;20577;-76
2021/01/30 04:34:12;;;;;;;14.17;10.73;;;;;;;;;;5030332;28;20273;-76
2021/01/30 04:36:38;;;;;;;13.13;10.30;;;;;;;;;;5034775;28;20171;-77
2021/01/30 04:39:04;;;;;;;12.23;9.97;;;;;;;;;;5034689;28;20183;-77
2021/01/30 04:41:33;;;;;;;11.47;10.27;;;;;;;;;;5018022;28;20190;-78
2021/01/30 04:44:18;;;;;;;11.73;9.60;;;;;;;;;;5034507;28;20229;-79
2021/01/30 04:46:58;;;;;;;12.43;10.67;;;;;;;;;;5034672;28;20186;-77
2021/01/30 04:49:27;;;;;;;12.37;10.70;;;;;;;;;;5018282;28;20182;-77
2021/01/30 04:51:56;;;;;;;11.97;10.07;;;;;;;;;;5034468;28;20198;-81
2021/01/30 04:54:28;;;;;;;13.83;11.03;;;;;;;;;;5035669;28;20670;-76
2021/01/30 04:57:12;;;;;;;12.63;10.73;;;;;;;;;;5035506;28;20174;-77
2021/01/30 04:59:44;;;;;;;12.87;10.87;;;;;;;;;;5035920;28;20634;-77
2021/01/30 05:02:13;;;;;;;12.73;10.37;;;;;;;;;;5035460;28;20189;-77
2021/01/30 05:04:42;;;;;;;12.10;9.70;;;;;;;;;;5035479;28;20198;-77
2021/01/30 05:07:10;;;;;;;13.83;10.97;;;;;;;;;;5034462;28;20635;-79
2021/01/30 05:09:46;;;;;;;13.17;10.67;;;;;;;;;;5034204;28;20210;-79
2021/01/30 05:12:17;;;;;;;13.53;10.93;;;;;;;;;;5034065;28;20210;-77
2021/01/30 05:14:45;;;;;;;12.00;9.70;;;;;;;;;;5017762;28;20666;-77
2021/01/30 05:17:31;;;;;;;11.33;9.93;;;;;;;;;;5034164;28;20181;-77
2021/01/30 05:19:59;;;;;;;11.27;9.47;;;;;;;;;;5034186;28;20233;-77
2021/01/30 05:22:30;;;;;;;10.70;9.53;;;;;;;;;;5017505;28;20194;-77
2021/01/30 05:24:56;;;;;;;11.50;9.27;;;;;;;;;;5034043;28;20225;-77
2021/01/30 05:27:36;;;;;;;12.77;10.23;;;;;;;;;;5017579;28;20186;-76
2021/01/30 05:30:08;;;;;;;10.77;9.10;;;;;;;;;;5017894;28;20217;-76
2021/01/30 05:32:43;;;;;;;14.23;9.47;;;;;;;;;;5035111;28;20678;-79
2021/01/30 05:35:13;;;;;;;13.00;10.07;;;;;;;;;;5034981;28;20194;-76
2021/01/30 05:37:40;;;;;;;11.63;10.00;;;;;;;;;;5033806;28;20225;-77
2021/01/30 05:40:12;;;;;;;11.60;9.47;;;;;;;;;;5033412;28;20201;-79
2021/01/30 05:42:38;;;;;;;11.03;9.77;;;;;;;;;;5033551;28;20528;-77
2021/01/30 05:45:07;;;;;;;11.50;9.00;;;;;;;;;;5033399;28;20213;-76
2021/01/30 05:47:33;;;;;;;12.40;9.57;;;;;;;;;;5033386;28;20239;-76
2021/01/30 05:50:05;;;;;;;11.37;9.10;;;;;;;;;;5033369;28;20220;-77
2021/01/30 05:52:36;;;;;;;11.63;9.53;;;;;;;;;;5035122;28;20701;-77
2021/01/30 05:55:02;;;;;;;12.73;9.53;;;;;;;;;;5033421;28;20538;-77
2021/01/30 05:57:28;;;;;;;11.17;9.57;;;;;;;;;;5033795;28;20703;-77
2021/01/30 05:59:57;;;;;;;12.07;9.70;;;;;;;;;;5017189;28;20179;-76
2021/01/30 06:02:25;;;;;;;13.33;9.73;;;;;;;;;;5016984;28;20312;-76
2021/01/30 06:04:51;;;;;;;13.60;10.60;;;;;;;;;;5033096;28;20203;-77
2021/01/30 06:07:19;;;;;;;14.20;11.00;;;;;;;;;;5016645;28;20186;-77
2021/01/30 06:09:45;;;;;;;12.73;9.90;;;;;;;;;;5032998;28;20181;-78
2021/01/30 06:12:20;;;;;;;13.57;10.90;;;;;;;;;;5033192;28;20216;-80
2021/01/30 06:14:47;;;;;;;13.00;10.37;;;;;;;;;;5034294;28;20248;-77
2021/01/30 06:17:17;;;;;;;13.23;10.80;;;;;;;;;;5033168;28;20189;-77
2021/01/30 06:19:43;;;;;;;13.43;10.63;;;;;;;;;;5033103;28;20178;-77
2021/01/30 06:22:18;;;;;;;10.57;9.10;;;;;;;;;;5033084;28;20213;-78
2021/01/30 06:24:44;;;;;;;11.33;9.20;;;;;;;;;;5016727;28;20722;-77
2021/01/30 06:27:12;;;;;;;11.27;9.57;;;;;;;;;;5032960;28;20182;-76
2021/01/30 06:29:38;;;;;;;13.10;9.87;;;;;;;;;;5032955;28;20179;-77
2021/01/30 06:32:06;;;;;;;10.50;8.63;;;;;;;;;;5032921;28;20210;-76
2021/01/30 06:34:34;;;;;;;9.90;8.73;;;;;;;;;;5032854;28;20205;-78
2021/01/30 06:37:09;;;;;;;11.03;8.77;;;;;;;;;;5016389;28;20642;-79
2021/01/30 06:39:35;;;;;;;11.10;8.80;;;;;;;;;;5032998;28;20537;-76
2021/01/30 06:42:05;;;;;;;10.93;9.13;;;;;;;;;;5032750;28;20529;-76
2021/01/30 06:44:31;;;;;;;12.17;9.00;;;;;;;;;;5016050;28;20294;-76
2021/01/30 06:47:00;;;;;;;9.80;8.13;;;;;;;;;;5032439;28;20236;-77
2021/01/30 06:49:27;;;;;;;12.03;9.80;;;;;;;;;;5033573;28;20206;-77
2021/01/30 06:51:53;;;;;;;12.53;9.40;;;;;;;;;;5032327;28;20823;-77
2021/01/30 06:54:19;;;;;;;14.47;8.87;;;;;;;;;;5016319;28;20294;-79
2021/01/30 06:56:45;;;;;;;10.47;8.57;;;;;;;;;;5034628;28;20214;-76
2021/01/30 06:59:14;;;;;;;12.50;9.93;;;;;;;;;;5016448;28;20178;-77
2021/01/30 07:01:43;;;;;;;11.77;9.00;;;;;;;;;;5032032;28;20230;-80
2021/01/30 07:04:28;;;;;;;10.87;8.77;;;;;;;;;;5032215;28;20202;-78
2021/01/30 07:07:17;;;;;;;10.73;8.90;;;;;;;;;;5031989;28;20228;-76
2021/01/30 07:10:03;;;;;;;14.67;10.40;;;;;;;;;;5025169;28;20197;-76
2021/01/30 07:12:47;;;;;;;10.30;7.87;;;;;;;;;;5025757;28;20219;-79
2021/01/30 07:15:16;;;;;;;11.40;8.30;;;;;;;;;;5034247;28;20201;-79
2021/01/30 07:17:42;;;;;;;10.77;8.07;;;;;;;;;;5037501;28;20182;-79
2021/01/30 07:20:12;;;;;;;10.50;8.33;;;;;;;;;;5032644;28;20190;-78
2021/01/30 07:22:49;;;;;;;12.27;8.13;;;;;;;;;;5034930;28;20270;-76
2021/01/30 07:25:17;;;;;;;11.93;9.10;;;;;;;;;;5029133;28;20589;-74
2021/01/30 07:27:46;;;;;;;11.37;8.40;;;;;;;;;;5048340;28;20179;-75
2021/01/30 07:30:14;;;;;;;11.80;8.43;;;;;;;;;;5032605;28;20202;-74
2021/01/30 07:32:41;;;;;;;11.67;9.17;;;;;;;;;;5048205;28;20253;-75
2021/01/30 07:35:26;;;;;;;11.37;8.70;;;;;;;;;;5032021;28;20876;-74
2021/01/30 07:38:00;;;;;;;10.83;8.30;;;;;;;;;;5030687;28;20178;-75
2021/01/30 07:40:52;;;;;;;12.17;9.23;;;;;;;;;;5013744;28;20181;-74
2021/01/30 07:43:30;;;;;;;11.37;8.43;;;;;;;;;;5026504;28;20214;-74
2021/01/30 07:46:05;;;;;;;15.83;10.20;;;;;;;;;;5029825;28;20653;-74
2021/01/30 07:48:31;;;;;;;10.83;7.70;;;;;;;;;;5030004;28;20308;-74
2021/01/30 07:51:00;;;;;;;11.17;8.17;;;;;;;;;;5030946;28;20539;-75
2021/01/30 07:53:26;;;;;;;11.17;8.57;;;;;;;;;;5030722;28;20246;-75
2021/01/30 07:55:58;;;;;;;10.57;8.30;;;;;;;;;;5030776;28;20178;-74
2021/01/30 07:58:43;;;;;;;10.50;7.77;;;;;;;;;;5032141;28;20179;-74
2021/01/30 08:01:35;;;;;;;9.13;7.23;;;;;;;;;;5031728;28;20182;-74
2021/01/30 08:04:20;;;;;;;10.47;7.80;;;;;;;;;;5027004;28;20214;-74
2021/01/30 08:06:50;;;;;;;10.40;8.00;;;;;;;;;;5031747;28;20721;-75
2021/01/30 08:09:18;;;;;;;11.33;8.27;;;;;;;;;;5046455;28;20504;-74
2021/01/30 08:11:59;;;;;;;9.33;7.63;;;;;;;;;;5030491;28;20686;-77
2021/01/30 08:14:35;;;;;;;10.80;8.20;;;;;;;;;;5030534;28;20211;-77
2021/01/30 08:17:10;;;;;;;9.80;7.47;;;;;;;;;;5029345;28;20213;-76
2021/01/30 08:19:40;;;;;;;9.70;7.27;;;;;;;;;;5028738;28;20220;-75
2021/01/30 08:22:07;;;;;;;12.17;8.77;;;;;;;;;;5030717;28;20194;-76
2021/01/30 08:24:34;;;;;;;10.40;8.00;;;;;;;;;;5011589;28;20323;-77
2021/01/30 08:27:00;;;;;;;11.87;8.57;;;;;;;;;;5032151;28;20186;-77
2021/01/30 08:29:28;;;;;;;16.77;11.33;;;;;;;;;;5029952;28;20197;-77
2021/01/30 08:32:00;;;;;;;11.43;8.40;;;;;;;;;;5031631;28;20205;-77
2021/01/30 08:34:27;;;;;;;13.93;9.47;;;;;;;;;;5030693;28;20190;-77
2021/01/30 08:36:54;;;;;;;12.23;9.20;;;;;;;;;;5030534;28;20198;-76
2021/01/30 08:39:21;;;;;;;14.07;9.57;;;;;;;;;;5030241;28;20179;-78
2021/01/30 08:41:48;;;;;;;13.33;9.20;;;;;;;;;;5029824;28;20194;-76
2021/01/30 08:44:35;;;;;;;11.23;8.50;;;;;;;;;;5030145;28;20662;-78
2021/01/30 08:47:21;;;;;;;12.37;8.97;;;;;;;;;;5012760;28;20176;-78
2021/01/30 08:49:57;;;;;;;12.43;9.47;;;;;;;;;;5005409;28;20646;-78
2021/01/30 08:52:36;;;;;;;12.63;9.07;;;;;;;;;;5030358;28;20201;-76
2021/01/30 08:55:21;;;;;;;12.67;8.77;;;;;;;;;;5045993;28;20293;-77
2021/01/30 08:57:47;;;;;;;10.77;8.40;;;;;;;;;;5027062;28;20195;-77
2021/01/30 09:00:33;;;;;;;12.63;8.80;;;;;;;;;;5014190;28;20187;-77
2021/01/30 09:03:00;;;;;;;12.47;8.90;;;;;;;;;;5030365;28;20182;-76
2021/01/30 09:05:26;;;;;;;13.37;9.33;;;;;;;;;;5030172;28;20198;-76
2021/01/30 09:07:56;;;;;;;11.40;8.83;;;;;;;;;;5032797;28;20198;-75
2021/01/30 09:10:22;;;;;;;13.57;9.87;;;;;;;;;;5030355;28;20198;-80
2021/01/30 09:12:54;;;;;;;11.40;8.63;;;;;;;;;;5030475;28;20275;-76
2021/01/30 09:15:39;;;;;;;11.30;9.10;;;;;;;;;;5030654;28;20212;-75
2021/01/30 09:18:07;;;;;;;10.70;7.50;;;;;;;;;;5030553;28;20700;-75
2021/01/30 09:20:33;;;;;;;11.70;8.87;;;;;;;;;;5030970;28;20263;-81
2021/01/30 09:23:09;;;;;;;11.97;8.73;;;;;;;;;;5036401;28;20393;-79
2021/01/30 09:26:04;;;;;;;13.23;9.67;;;;;;;;;;5038066;28;20193;-82
2021/01/30 09:28:31;;;;;;;12.50;9.57;;;;;;;;;;4969150;28;20193;-80
2021/01/30 09:31:11;;;;;;;11.90;9.37;;;;;;;;;;5042262;28;20252;-81
2021/01/30 09:33:37;;;;;;;12.33;9.63;;;;;;;;;;5037379;28;20218;-81
2021/01/30 09:36:06;;;;;;;12.40;9.13;;;;;;;;;;5017225;28;20665;-81
2021/01/30 09:38:37;;;;;;;13.60;10.10;;;;;;;;;;5017310;28;20662;-84
2021/01/30 09:41:06;;;;;;;12.27;9.77;;;;;;;;;;5015761;28;20717;-81
2021/01/30 09:43:33;;;;;;;12.23;8.90;;;;;;;;;;5014171;28;20238;-83
2021/01/30 09:45:59;;;;;;;10.77;9.20;;;;;;;;;;5017443;28;20547;-83
2021/01/30 09:48:25;;;;;;;12.73;9.90;;;;;;;;;;5017534;28;20180;-80
2021/01/30 09:50:52;;;;;;;14.47;10.10;;;;;;;;;;5013934;28;20206;-80
2021/01/30 09:53:24;;;;;;;12.07;8.90;;;;;;;;;;5016120;28;20238;-85
2021/01/30 09:55:56;;;;;;;11.73;9.27;;;;;;;;;;5016080;28;20262;-81
2021/01/30 09:58:22;;;;;;;11.83;8.80;;;;;;;;;;5031099;28;20725;-81
2021/01/30 10:00:48;;;;;;;10.67;8.50;;;;;;;;;;5018261;28;20221;-80
2021/01/30 10:03:21;;;;;;;11.17;7.97;;;;;;;;;;5034949;28;20250;-79
2021/01/30 10:05:47;;;;;;;11.83;8.93;;;;;;;;;;5034538;28;20269;-79
2021/01/30 10:08:14;;;;;;;11.70;9.13;;;;;;;;;;5034184;28;20189;-77
2021/01/30 10:10:40;;;;;;;11.37;8.20;;;;;;;;;;5033310;28;20630;-77
2021/01/30 10:13:11;;;;;;;10.83;8.10;;;;;;;;;;5032985;28;20210;-79
2021/01/30 10:15:37;;;;;;;11.23;8.00;;;;;;;;;;5033383;28;20181;-79
2021/01/30 10:18:03;;;;;;;10.27;8.03;;;;;;;;;;5016752;28;20202;-78
2021/01/30 10:20:40;;;;;;;11.00;8.77;;;;;;;;;;5016102;28;20179;-78
2021/01/30 10:23:06;;;;;;;11.30;8.47;;;;;;;;;;5033631;28;20196;-79
2021/01/30 10:25:32;;;;;;;12.23;8.17;;;;;;;;;;5049063;28;20194;-79
2021/01/30 10:28:08;;;;;;;11.07;8.50;;;;;;;;;;5032778;28;20233;-79
2021/01/30 10:30:34;;;;;;;12.40;9.47;;;;;;;;;;5033052;28;20179;-78
2021/01/30 10:33:00;;;;;;;12.23;8.27;;;;;;;;;;5031951;28;20221;-79
2021/01/30 10:35:28;;;;;;;11.43;8.37;;;;;;;;;;5032474;28;20182;-77
2021/01/30 10:37:55;;;;;;;10.80;7.80;;;;;;;;;;5032643;28;20669;-79
2021/01/30 10:40:21;;;;;;;11.00;8.10;;;;;;;;;;5032141;28;20765;-77
2021/01/30 10:42:47;;;;;;;11.13;7.80;;;;;;;;;;5033948;28;20191;-72
2021/01/30 10:45:16;;;;;;;10.40;7.20;;;;;;;;;;5034109;28;20206;-74
2021/01/30 10:47:42;;;;;;;9.80;6.37;;;;;;;;;;5033850;28;20245;-75
2021/01/30 10:50:20;;;;;;;9.80;7.30;;;;;;;;;;5032546;28;20686;-74
2021/01/30 10:52:46;;;;;;;10.87;8.17;;;;;;;;;;5032622;28;20198;-75
2021/01/30 10:55:22;;;;;;;10.80;8.30;;;;;;;;;;5032524;28;20194;-75
2021/01/30 10:57:48;;;;;;;11.20;8.57;;;;;;;;;;5015937;28;20174;-75
2021/01/30 11:00:32;;;;;;;11.03;8.17;;;;;;;;;;5032403;28;20182;-75
2021/01/30 11:02:58;;;;;;;11.03;8.37;;;;;;;;;;5032352;28;20194;-77
2021/01/30 11:05:26;;;;;;;11.00;8.10;;;;;;;;;;5032239;28;20226;-76
2021/01/30 11:07:57;;;;;;;21.37;12.47;;;;;;;;;;5015849;28;20316;-75
2021/01/30 11:10:42;;;;;;;10.97;7.67;;;;;;;;;;5032057;28;20642;-75
2021/01/30 11:13:20;;;;;;;10.63;7.67;;;;;;;;;;5033149;28;20662;-79
2021/01/30 11:15:46;;;;;;;9.83;7.27;;;;;;;;;;5033442;28;20182;-74
2021/01/30 11:18:35;;;;;;;11.07;7.97;;;;;;;;;;5032063;28;20841;-73
2021/01/30 11:21:01;;;;;;;9.77;7.20;;;;;;;;;;5024893;28;20293;-72
2021/01/30 11:23:30;;;;;;;11.63;8.17;;;;;;;;;;5031744;28;20214;-73
2021/01/30 11:25:56;;;;;;;10.83;8.00;;;;;;;;;;5028627;28;20193;-77
2021/01/30 11:28:35;;;;;;;12.47;8.40;;;;;;;;;;5031480;28;20528;-74
2021/01/30 11:31:01;;;;;;;10.80;7.43;;;;;;;;;;5045610;28;20182;-78
2021/01/30 11:33:27;;;;;;;9.67;7.70;;;;;;;;;;5032597;28;20222;-74
2021/01/30 11:35:53;;;;;;;11.20;8.13;;;;;;;;;;5031598;28;20190;-76
2021/01/30 11:38:20;;;;;;;10.30;8.10;;;;;;;;;;5031625;28;20573;-74
2021/01/30 11:40:46;;;;;;;10.10;7.60;;;;;;;;;;5014865;28;20218;-74
2021/01/30 11:43:13;;;;;;;9.90;6.83;;;;;;;;;;5031246;28;20265;-74
2021/01/30 11:45:39;;;;;;;9.87;7.83;;;;;;;;;;5031687;28;20670;-74
2021/01/30 11:48:05;;;;;;;9.30;7.37;;;;;;;;;;5032661;28;20207;-74
2021/01/30 11:50:31;;;;;;;8.60;6.50;;;;;;;;;;5030890;28;20245;-76
2021/01/30 11:53:18;;;;;;;9.43;7.30;;;;;;;;;;5031164;28;20202;-75
2021/01/30 11:55:44;;;;;;;9.73;7.20;;;;;;;;;;5025440;28;20195;-75
2021/01/30 11:58:10;;;;;;;9.47;7.10;;;;;;;;;;5014783;28;20276;-75
2021/01/30 12:00:36;;;;;;;8.07;6.47;;;;;;;;;;5031012;28;20222;-74
2021/01/30 12:03:02;;;;;;;8.87;7.03;;;;;;;;;;5030968;28;20186;-74
2021/01/30 12:05:28;;;;;;;9.37;7.27;;;;;;;;;;5030736;28;20179;-75
2021/01/30 12:07:54;;;;;;;9.83;6.90;;;;;;;;;;5031375;28;20265;-75
2021/01/30 12:10:20;;;;;;;9.70;7.20;;;;;;;;;;5014093;28;20179;-75
2021/01/30 12:12:46;;;;;;;7.97;6.33;;;;;;;;;;5030995;28;20211;-74
2021/01/30 12:15:13;;;;;;;9.77;6.60;;;;;;;;;;5031063;28;20571;-74
2021/01/30 12:17:40;;;;;;;7.53;6.60;;;;;;;;;;5031054;28;20185;-74
2021/01/30 12:20:07;;;;;;;9.77;6.70;;;;;;;;;;5014704;28;20661;-75
2021/01/30 12:22:34;;;;;;;8.73;6.37;;;;;;;;;;5014655;28;20322;-76
2021/01/30 12:25:00;;;;;;;8.30;6.13;;;;;;;;;;5030713;28;20214;-75
2021/01/30 12:27:26;;;;;;;8.43;6.47;;;;;;;;;;5032044;28;20198;-75
2021/01/30 12:29:52;;;;;;;8.17;6.03;;;;;;;;;;5031801;28;20330;-75
2021/01/30 12:32:18;;;;;;;6.37;4.77;;;;;;;;;;5031904;28;20206;-74
2021/01/30 12:34:44;;;;;;;8.00;6.57;;;;;;;;;;5031687;28;20199;-76
2021/01/30 12:37:10;;;;;;;8.80;6.13;;;;;;;;;;5014560;28;20556;-79
2021/01/30 12:39:36;;;;;;;7.73;5.90;;;;;;;;;;5031657;28;20181;-74
2021/01/30 12:42:02;;;;;;;8.33;6.00;;;;;;;;;;5030676;28;20586;-74
2021/01/30 12:44:28;;;;;;;7.63;6.17;;;;;;;;;;5031644;28;20568;-75
2021/01/30 12:46:54;;;;;;;9.87;6.93;;;;;;;;;;5031787;28;20191;-74
2021/01/30 12:49:20;;;;;;;8.23;6.27;;;;;;;;;;5030379;28;20179;-74
2021/01/30 12:51:46;;;;;;;8.07;6.30;;;;;;;;;;5030302;28;20218;-74
2021/01/30 12:54:12;;;;;;;8.30;6.23;;;;;;;;;;5030506;28;20210;-75
2021/01/30 12:56:38;;;;;;;8.80;6.30;;;;;;;;;;5034042;28;20178;-74
2021/01/30 12:59:04;;;;;;;7.53;6.40;;;;;;;;;;5034367;28;20186;-74
2021/01/30 13:01:33;;;;;;;7.10;5.80;;;;;;;;;;5034080;28;20623;-75
2021/01/30 13:03:59;;;;;;;8.17;6.80;;;;;;;;;;5034313;28;20199;-76
2021/01/30 13:06:25;;;;;;;7.00;5.80;;;;;;;;;;5017785;28;20179;-75
2021/01/30 13:08:51;;;;;;;7.10;5.73;;;;;;;;;;5034399;28;20189;-77
2021/01/30 13:11:17;;;;;;;7.00;5.27;;;;;;;;;;5035111;28;20175;-77
2021/01/30 13:13:43;;;;;;;6.77;5.17;;;;;;;;;;5034098;28;20224;-76
2021/01/30 13:16:09;;;;;;;6.73;5.00;;;;;;;;;;5034288;28;20199;-78
2021/01/30 13:18:35;;;;;;;7.00;5.77;;;;;;;;;;5035215;28;20186;-75
2021/01/30 13:21:03;;;;;;;8.33;5.93;;;;;;;;;;5033791;28;20234;-75
2021/01/30 13:23:32;;;;;;;9.37;5.93;;;;;;;;;;5034912;28;20210;-75
2021/01/30 13:25:58;;;;;;;7.77;5.90;;;;;;;;;;5035558;28;20183;-74
2021/01/30 13:28:24;;;;;;;7.13;5.37;;;;;;;;;;5033992;28;20232;-75
2021/01/30 13:30:49;;;;;;;6.87;4.93;;;;;;;;;;5033476;28;20198;-76
2021/01/30 13:33:16;;;;;;;7.10;4.33;;;;;;;;;;5034037;28;20369;-76
2021/01/30 13:35:42;;;;;;;5.67;4.30;;;;;;;;;;5035097;28;20171;-75
2021/01/30 13:38:08;;;;;;;5.70;4.20;;;;;;;;;;5034755;28;20547;-74
2021/01/30 13:40:34;;;;;;;6.70;4.67;;;;;;;;;;5034406;28;20179;-74
2021/01/30 13:43:00;;;;;;;8.03;5.40;;;;;;;;;;5033464;28;20186;-76
2021/01/30 13:45:26;;;;;;;6.03;4.93;;;;;;;;;;5033427;28;20187;-75
2021/01/30 13:47:52;;;;;;;5.73;4.53;;;;;;;;;;5033444;28;20670;-75
2021/01/30 13:50:18;;;;;;;6.47;4.43;;;;;;;;;;5033196;28;20225;-74
2021/01/30 13:52:45;;;;;;;5.37;4.47;;;;;;;;;;5034563;28;20606;-75
2021/01/30 13:55:11;;;;;;;6.90;4.67;;;;;;;;;;5033321;28;20692;-75
2021/01/30 13:57:39;;;;;;;4.97;4.43;;;;;;;;;;5033588;28;20171;-74
2021/01/30 14:00:05;;;;;;;7.40;4.70;;;;;;;;;;5032964;28;20175;-73
2021/01/30 14:02:31;;;;;;;4.70;3.80;;;;;;;;;;5033349;28;20183;-75
2021/01/30 14:04:57;;;;;;;7.00;4.80;;;;;;;;;;5016845;28;20229;-73
2021/01/30 14:07:23;;;;;;;6.27;4.67;;;;;;;;;;5031921;28;20178;-75
2021/01/30 14:09:49;;;;;;;6.23;4.50;;;;;;;;;;5034156;28;20630;-75
2021/01/30 14:12:15;;;;;;;7.43;4.83;;;;;;;;;;5049590;28;20206;-75
2021/01/30 14:14:41;;;;;;;6.00;4.53;;;;;;;;;;5032817;28;20701;-76
2021/01/30 14:17:07;;;;;;;4.90;4.20;;;;;;;;;;5032883;28;20672;-78
2021/01/30 14:19:32;;;;;;;5.93;4.43;;;;;;;;;;5031318;28;20187;-77
2021/01/30 14:21:58;;;;;;;5.20;4.07;;;;;;;;;;5031106;28;20182;-79
2021/01/30 14:24:25;;;;;;;6.33;4.97;;;;;;;;;;5032612;28;20217;-78
2021/01/30 14:26:51;;;;;;;6.17;5.00;;;;;;;;;;5033369;28;20237;-75
2021/01/30 14:29:17;;;;;;;6.57;5.03;;;;;;;;;;5016403;28;20635;-77
2021/01/30 14:31:43;;;;;;;5.80;4.67;;;;;;;;;;5032104;28;20202;-77
2021/01/30 14:34:09;;;;;;;6.93;4.67;;;;;;;;;;5049610;28;20194;-80
2021/01/30 14:36:35;;;;;;;5.30;4.30;;;;;;;;;;5016788;28;20596;-80
2021/01/30 14:39:00;;;;;;;5.77;4.80;;;;;;;;;;5034268;28;20175;-77
2021/01/30 14:41:26;;;;;;;6.03;4.60;;;;;;;;;;5016227;28;20655;-75